Time;durP1;ratioP1;P1;durP2;ratioP2;P2;SDS_P1;SDS_P2;PMS_P1;PMS_P2;Temp;Humidity;BMP_temperature;BMP_pressure;BME280_temperature;BME280_humidity;BME280_pressure;Samples;Min_cycle;Max_cycle;Signal;HPM_P1;HPM_P2
2023/03/21 00:01:50;;;;;;;20.33;14.30;;;;;;;8.23;90.23;100915.09;4970461;28;20241;-82
2023/03/21 00:04:16;;;;;;;17.77;13.47;;;;;;;8.22;90.61;100908.06;4971687;28;20212;-82
2023/03/21 00:06:43;;;;;;;20.13;14.47;;;;;;;8.23;90.31;100900.97;4959291;28;20205;-82
2023/03/21 00:09:11;;;;;;;22.43;14.00;;;;;;;8.23;91.12;100911.59;4969569;28;20224;-81
2023/03/21 00:11:37;;;;;;;20.13;14.27;;;;;;;8.23;91.04;100907.13;4970197;28;20216;-82
2023/03/21 00:14:07;;;;;;;19.10;14.87;;;;;;;8.20;91.54;100909.94;4976338;28;20208;-82
2023/03/21 00:16:36;;;;;;;18.87;14.87;;;;;;;8.17;91.93;100907.44;4969545;28;20232;-82
2023/03/21 00:19:05;;;;;;;20.47;13.97;;;;;;;8.20;91.65;100907.28;4974106;28;20232;-82
2023/03/21 00:21:32;;;;;;;22.30;14.40;;;;;;;8.16;91.98;100905.72;4969145;28;20260;-82
2023/03/21 00:24:00;;;;;;;20.57;13.93;;;;;;;8.17;92.37;100907.44;4972006;28;20246;-81
2023/03/21 00:26:27;;;;;;;15.93;13.63;;;;;;;8.17;92.00;100896.81;4975531;28;20247;-81
2023/03/21 00:28:53;;;;;;;18.67;13.50;;;;;;;8.20;92.94;100901.13;4970051;28;20243;-81
2023/03/21 00:31:20;;;;;;;19.73;13.23;;;;;;;8.18;92.62;100901.19;4966513;28;20205;-82
2023/03/21 00:33:48;;;;;;;17.33;13.30;;;;;;;8.16;92.57;100899.53;4973918;28;20238;-82
2023/03/21 00:36:15;;;;;;;15.73;13.40;;;;;;;8.16;92.84;100896.88;4970197;28;20561;-81
2023/03/21 00:38:42;;;;;;;17.70;12.93;;;;;;;8.16;93.05;100894.25;4974099;28;20259;-82
2023/03/21 00:41:13;;;;;;;16.73;13.40;;;;;;;8.13;93.49;100900.53;4974777;28;20602;-82
2023/03/21 00:43:39;;;;;;;16.17;12.57;;;;;;;8.16;93.68;100895.09;4963305;28;20573;-82
2023/03/21 00:46:06;;;;;;;17.03;14.07;;;;;;;8.16;93.87;100897.75;4963568;28;20710;-82
2023/03/21 00:48:33;;;;;;;15.50;12.07;;;;;;;8.16;93.42;100895.09;4974989;28;20757;-82
2023/03/21 00:51:00;;;;;;;19.13;13.33;;;;;;;8.16;93.36;100888.94;4970634;28;20204;-82
2023/03/21 00:53:28;;;;;;;16.47;13.13;;;;;;;8.16;93.66;100891.59;4967411;28;20220;-82
2023/03/21 00:55:55;;;;;;;16.20;12.90;;;;;;;8.17;94.22;100891.50;4963961;28;20451;-82
2023/03/21 00:58:21;;;;;;;17.33;13.07;;;;;;;8.16;93.85;100887.13;4970438;28;20214;-82
2023/03/21 01:00:49;;;;;;;13.93;12.20;;;;;;;8.16;94.24;100883.63;4971802;28;20682;-82
2023/03/21 01:03:16;;;;;;;16.63;12.47;;;;;;;8.16;94.46;100878.31;4977396;28;20294;-81
2023/03/21 01:06:04;;;;;;;14.60;12.40;;;;;;;8.16;94.81;100878.31;4972073;28;20218;-82
2023/03/21 01:08:34;;;;;;;16.60;12.33;;;;;;;8.17;94.29;100883.56;4967428;28;20205;-82
2023/03/21 01:11:06;;;;;;;18.27;12.83;;;;;;;8.16;94.35;100876.53;4963931;28;20577;-82
2023/03/21 01:13:33;;;;;;;16.07;13.23;;;;;;;8.16;94.74;100871.22;4966513;28;20208;-82
2023/03/21 01:16:00;;;;;;;18.17;11.67;;;;;;;8.16;95.59;100873.88;4975682;28;20204;-82
2023/03/21 01:18:29;;;;;;;15.23;12.27;;;;;;;8.18;94.96;100865.84;4962827;28;20201;-82
2023/03/21 01:20:58;;;;;;;16.93;12.83;;;;;;;8.17;95.19;100866.78;4970037;28;20247;-82
2023/03/21 01:23:25;;;;;;;15.33;12.40;;;;;;;8.20;94.95;100869.28;4966964;28;20295;-82
2023/03/21 01:25:55;;;;;;;17.00;12.33;;;;;;;8.21;95.11;100863.03;4973198;28;20208;-83
2023/03/21 01:28:21;;;;;;;16.07;12.17;;;;;;;8.23;95.30;100866.47;4961284;28;20212;-83
2023/03/21 01:30:49;;;;;;;13.50;12.03;;;;;;;8.24;95.42;100863.72;4975590;28;20238;-83
2023/03/21 01:33:18;;;;;;;16.77;12.37;;;;;;;8.21;95.72;100863.91;4969489;28;20884;-83
2023/03/21 01:35:45;;;;;;;21.23;13.50;;;;;;;8.22;95.20;100864.75;4970826;28;20204;-82
2023/03/21 01:38:12;;;;;;;15.33;11.57;;;;;;;8.24;95.54;100853.09;4973621;28;20671;-83
2023/03/21 01:40:40;;;;;;;17.93;12.83;;;;;;;8.22;96.34;100849.69;4964418;28;20228;-82
2023/03/21 01:43:21;;;;;;;15.30;11.60;;;;;;;8.21;95.73;100855.94;4977427;28;20219;-82
2023/03/21 01:46:20;;;;;;;15.23;13.17;;;;;;;8.20;96.10;100864.84;4973805;28;20223;-83
2023/03/21 01:48:50;;;;;;;19.87;13.97;;;;;;;8.21;95.67;100855.94;4967490;28;20244;-83
2023/03/21 01:51:17;;;;;;;15.97;13.10;;;;;;;8.21;96.73;100852.44;4963130;28;20585;-83
2023/03/21 01:53:46;;;;;;;17.67;13.17;;;;;;;8.21;96.17;100855.94;4968084;28;20575;-83
2023/03/21 01:56:19;;;;;;;19.50;13.77;;;;;;;8.22;96.20;100848.84;4967463;28;20219;-82
2023/03/21 01:58:48;;;;;;;17.30;11.93;;;;;;;8.25;96.50;100840.69;4961078;28;20223;-82
2023/03/21 02:01:15;;;;;;;19.73;13.47;;;;;;;8.24;96.38;100849.63;4966036;28;20224;-83
2023/03/21 02:03:49;;;;;;;20.93;13.87;;;;;;;8.21;97.05;100842.69;4974897;28;20200;-83
2023/03/21 02:06:22;;;;;;;21.90;14.17;;;;;;;8.21;96.60;100844.47;4964383;28;20250;-83
2023/03/21 02:08:49;;;;;;;21.63;12.93;;;;;;;8.20;96.94;100840.94;4976464;28;20208;-83
2023/03/21 02:11:16;;;;;;;21.43;12.87;;;;;;;8.21;96.80;100837.38;4971314;28;20206;-83
2023/03/21 02:13:43;;;;;;;17.30;13.37;;;;;;;8.21;97.16;100839.16;4970709;28;20208;-83
2023/03/21 02:16:18;;;;;;;17.97;13.17;;;;;;;8.20;97.43;100834.78;4969914;28;20204;-82
2023/03/21 02:18:53;;;;;;;19.47;13.03;;;;;;;8.23;97.23;100835.50;4966407;28;20287;-83
2023/03/21 02:21:55;;;;;;;19.67;13.50;;;;;;;8.24;97.73;100828.41;4966528;28;20220;-83
2023/03/21 02:24:48;;;;;;;18.87;13.03;;;;;;;8.24;97.76;100839.00;4963618;28;20220;-83
2023/03/21 02:27:17;;;;;;;21.13;12.77;;;;;;;8.21;98.34;100829.41;4972731;28;20678;-82
2023/03/21 02:30:10;;;;;;;18.90;13.23;;;;;;;8.22;97.72;100823.16;4971231;28;20224;-83
2023/03/21 02:32:58;;;;;;;19.43;12.83;;;;;;;8.22;98.14;100827.63;4971952;28;20200;-83
2023/03/21 02:35:45;;;;;;;23.67;13.07;;;;;;;8.20;98.43;100821.53;4976927;28;20208;-83
2023/03/21 02:38:18;;;;;;;20.27;13.50;;;;;;;8.22;98.01;100824.97;4975210;28;20223;-82
2023/03/21 02:40:52;;;;;;;21.40;13.13;;;;;;;8.22;98.96;100819.66;4966483;28;20832;-83
2023/03/21 02:43:26;;;;;;;18.60;13.57;;;;;;;8.21;98.30;100820.59;4969670;28;20758;-83
2023/03/21 02:45:56;;;;;;;19.63;12.93;;;;;;;8.21;98.78;100816.16;4973326;28;20215;-83
2023/03/21 02:48:29;;;;;;;20.20;12.77;;;;;;;8.23;98.32;100813.41;4970390;28;20707;-82
2023/03/21 02:51:00;;;;;;;19.43;14.10;;;;;;;8.23;98.45;100813.41;4972505;28;20236;-82
2023/03/21 02:53:34;;;;;;;18.70;13.00;;;;;;;8.25;98.62;100812.38;4966231;28;20204;-82
2023/03/21 02:56:01;;;;;;;24.63;14.33;;;;;;;8.23;98.49;100806.31;4975788;28;20567;-83
2023/03/21 02:58:30;;;;;;;20.83;14.43;;;;;;;8.26;98.87;100806.13;4969227;28;20216;-83
2023/03/21 03:00:57;;;;;;;23.33;15.43;;;;;;;8.26;98.44;100816.75;4973364;28;20560;-83
2023/03/21 03:03:24;;;;;;;20.70;12.90;;;;;;;8.27;98.66;100805.19;4980324;28;20238;-83
2023/03/21 03:05:53;;;;;;;20.53;13.90;;;;;;;8.26;98.54;100805.28;4972743;28;20216;-83
2023/03/21 03:08:33;;;;;;;22.37;13.97;;;;;;;8.27;99.29;100802.53;4961861;28;20212;-83
2023/03/21 03:11:16;;;;;;;19.73;14.20;;;;;;;8.27;99.35;100801.69;4967161;28;20204;-83
2023/03/21 03:14:01;;;;;;;24.17;14.23;;;;;;;8.27;98.96;100799.03;4970441;28;20208;-82
2023/03/21 03:16:35;;;;;;;24.13;14.57;;;;;;;8.24;98.58;100800.03;4968431;28;20200;-83
2023/03/21 03:19:05;;;;;;;20.87;14.37;;;;;;;8.25;98.68;100793.78;4975889;28;20310;-83
2023/03/21 03:21:41;;;;;;;19.10;14.17;;;;;;;8.24;99.49;100789.44;4975468;28;20897;-83
2023/03/21 03:24:11;;;;;;;19.80;14.00;;;;;;;8.24;99.60;100788.59;4970827;28;20786;-82
2023/03/21 03:26:41;;;;;;;21.57;14.70;;;;;;;8.26;99.02;100789.34;4966786;28;20247;-82
2023/03/21 03:29:12;;;;;;;19.40;14.07;;;;;;;8.27;99.50;100783.97;4978037;28;20244;-83
2023/03/21 03:31:42;;;;;;;20.57;14.27;;;;;;;8.26;99.53;100776.09;4970037;28;20299;-82
2023/03/21 03:34:12;;;;;;;19.63;13.57;;;;;;;8.25;99.52;100788.50;4977933;28;20231;-82
2023/03/21 03:36:42;;;;;;;17.50;13.37;;;;;;;8.25;99.27;100793.78;4973711;28;20219;-83
2023/03/21 03:39:13;;;;;;;20.17;12.27;;;;;;;8.25;99.26;100788.50;4968026;28;20247;-82
2023/03/21 03:41:44;;;;;;;20.73;12.80;;;;;;;8.28;99.52;100793.66;4972940;28;20220;-83
2023/03/21 03:44:12;;;;;;;21.07;13.33;;;;;;;8.34;99.43;100788.06;4974201;28;20581;-83
2023/03/21 03:46:47;;;;;;;17.03;13.37;;;;;;;8.33;98.91;100789.00;4974555;28;20209;-83
2023/03/21 03:49:17;;;;;;;21.60;14.13;;;;;;;8.30;99.87;100786.47;4968762;28;21747;-83
2023/03/21 03:51:51;;;;;;;18.30;13.27;;;;;;;8.29;99.57;100798.03;4973267;28;20209;-82
2023/03/21 03:54:26;;;;;;;20.57;14.07;;;;;;;8.28;99.96;100787.47;4976154;28;20207;-82
2023/03/21 03:57:03;;;;;;;18.13;13.90;;;;;;;8.29;100.00;100786.53;4965252;28;20208;-82
2023/03/21 03:59:30;;;;;;;19.83;14.57;;;;;;;8.26;100.00;100784.91;4969854;28;20232;-82
2023/03/21 04:01:56;;;;;;;23.00;14.63;;;;;;;8.27;100.00;100781.31;4972252;28;20594;-82
2023/03/21 04:04:27;;;;;;;19.20;14.10;;;;;;;8.26;100.00;100787.56;4968593;28;20612;-82
2023/03/21 04:06:53;;;;;;;20.23;14.63;;;;;;;8.25;100.00;100785.84;4973872;28;20599;-82
2023/03/21 04:09:22;;;;;;;20.30;14.07;;;;;;;8.25;100.00;100785.84;4976616;28;20234;-83
2023/03/21 04:11:48;;;;;;;20.87;13.97;;;;;;;8.25;100.00;100787.63;4973615;28;20684;-83
2023/03/21 04:14:15;;;;;;;22.60;14.73;;;;;;;8.25;100.00;100780.53;4976840;28;20230;-83
2023/03/21 04:16:41;;;;;;;21.87;14.53;;;;;;;8.25;100.00;100779.66;4971522;28;20201;-83
2023/03/21 04:19:08;;;;;;;24.37;14.87;;;;;;;8.24;100.00;100780.66;4973154;28;20224;-82
2023/03/21 04:21:34;;;;;;;23.30;14.63;;;;;;;8.26;100.00;100778.75;4972919;28;20212;-83
2023/03/21 04:24:01;;;;;;;19.17;15.20;;;;;;;8.27;100.00;100776.00;4973715;28;20200;-83
2023/03/21 04:26:31;;;;;;;21.83;14.37;;;;;;;8.27;100.00;100776.00;4968825;28;20263;-82
2023/03/21 04:28:59;;;;;;;24.53;14.83;;;;;;;8.28;100.00;100777.72;4967415;28;20232;-82
2023/03/21 04:31:27;;;;;;;20.20;14.30;;;;;;;8.30;100.00;100775.84;4967616;28;20228;-83
2023/03/21 04:33:54;;;;;;;24.53;15.77;;;;;;;8.28;100.00;100775.06;4970128;28;20201;-83
2023/03/21 04:36:26;;;;;;;23.90;15.43;;;;;;;8.28;100.00;100782.19;4971097;28;20685;-83
2023/03/21 04:38:53;;;;;;;24.70;15.83;;;;;;;8.27;100.00;100776.00;4968663;28;20220;-83
2023/03/21 04:41:19;;;;;;;28.77;16.67;;;;;;;8.24;100.00;100780.66;4970288;28;20204;-83
2023/03/21 04:43:47;;;;;;;24.87;15.70;;;;;;;8.24;100.00;100776.16;4971268;28;20232;-82
2023/03/21 04:46:14;;;;;;;25.97;16.80;;;;;;;8.27;100.00;100769.84;4972801;28;20579;-83
2023/03/21 04:48:40;;;;;;;26.00;14.97;;;;;;;8.25;100.00;100777.88;4967326;28;20205;-83
2023/03/21 04:51:07;;;;;;;25.80;15.73;;;;;;;8.24;100.00;100770.84;4978363;28;20207;-83
2023/03/21 04:53:34;;;;;;;25.33;16.70;;;;;;;8.24;100.00;100773.50;4969760;28;20201;-83
2023/03/21 04:56:00;;;;;;;24.10;15.77;;;;;;;8.23;100.00;100770.97;4969177;28;20655;-82
2023/03/21 04:58:27;;;;;;;20.53;15.80;;;;;;;8.29;100.00;100782.09;4967425;28;20749;-82
2023/03/21 05:00:56;;;;;;;21.53;14.80;;;;;;;8.27;100.00;100773.34;4966035;28;20233;-82
2023/03/21 05:03:22;;;;;;;22.23;16.33;;;;;;;8.26;100.00;100776.09;4968134;28;20236;-82
2023/03/21 05:05:49;;;;;;;23.83;15.53;;;;;;;8.26;100.00;100771.63;4971740;28;20209;-83
2023/03/21 05:08:16;;;;;;;29.33;16.97;;;;;;;8.28;100.00;100768.91;4971252;28;20208;-83
2023/03/21 05:10:43;;;;;;;28.67;16.53;;;;;;;8.28;100.00;100777.72;4964417;28;20703;-82
2023/03/21 05:13:09;;;;;;;25.60;16.80;;;;;;;8.29;100.00;100778.59;4975965;28;20734;-83
2023/03/21 05:15:36;;;;;;;26.77;16.83;;;;;;;8.29;100.00;100770.63;4969605;28;20208;-83
2023/03/21 05:18:10;;;;;;;23.73;15.13;;;;;;;8.31;100.00;100771.41;4978709;28;20251;-82
2023/03/21 05:20:36;;;;;;;26.77;17.33;;;;;;;8.30;100.00;100775.84;4970413;28;20278;-83
2023/03/21 05:23:03;;;;;;;23.77;16.40;;;;;;;8.30;100.00;100773.19;4969263;28;20236;-82
2023/03/21 05:25:34;;;;;;;30.17;16.10;;;;;;;8.31;100.00;100766.97;4970972;28;20667;-83
2023/03/21 05:28:01;;;;;;;30.03;16.33;;;;;;;8.31;100.00;100776.72;4974145;28;20200;-82
2023/03/21 05:30:28;;;;;;;26.13;16.73;;;;;;;8.30;100.00;100775.84;4969011;28;20235;-83
2023/03/21 05:32:54;;;;;;;23.37;16.23;;;;;;;8.31;100.00;100782.03;4975487;28;20208;-82
2023/03/21 05:35:22;;;;;;;25.90;16.30;;;;;;;8.32;100.00;100779.31;4969320;28;20635;-83
2023/03/21 05:37:49;;;;;;;19.57;14.90;;;;;;;8.30;100.00;100772.34;4970423;28;20613;-82
2023/03/21 05:40:15;;;;;;;27.20;15.70;;;;;;;8.32;100.00;100763.41;4974172;28;20228;-83
2023/03/21 05:42:41;;;;;;;25.47;16.53;;;;;;;8.35;100.00;100770.34;4974065;28;20224;-82
2023/03/21 05:45:09;;;;;;;27.83;15.80;;;;;;;8.34;100.00;100769.50;4971921;28;20219;-83
2023/03/21 05:47:35;;;;;;;27.20;16.57;;;;;;;8.34;100.00;100765.97;4966670;28;20205;-83
2023/03/21 05:50:02;;;;;;;22.37;15.87;;;;;;;8.35;100.00;100765.03;4973357;28;20230;-82
2023/03/21 05:52:30;;;;;;;23.37;15.93;;;;;;;8.38;100.00;100766.69;4968422;28;20216;-83
2023/03/21 05:54:56;;;;;;;24.17;15.97;;;;;;;8.38;100.00;100764.03;4963804;28;20224;-82
2023/03/21 05:57:23;;;;;;;28.93;16.43;;;;;;;8.38;100.00;100759.56;4967497;28;20208;-81
2023/03/21 05:59:49;;;;;;;23.87;15.07;;;;;;;8.40;100.00;100763.00;4978615;28;20234;-82
2023/03/21 06:02:16;;;;;;;26.17;17.30;;;;;;;8.41;100.00;100756.78;4972101;28;20247;-82
2023/03/21 06:04:43;;;;;;;23.93;15.77;;;;;;;8.42;100.00;100753.16;4977144;28;20204;-81
2023/03/21 06:07:09;;;;;;;26.07;16.20;;;;;;;8.45;100.00;100757.44;4977352;28;20670;-81
2023/03/21 06:09:37;;;;;;;24.00;15.90;;;;;;;8.48;100.00;100762.59;4976262;28;20231;-82
2023/03/21 06:12:04;;;;;;;24.63;15.00;;;;;;;8.49;100.00;100762.50;4975572;28;20246;-82
2023/03/21 06:14:30;;;;;;;22.63;16.00;;;;;;;8.51;100.00;100765.09;4970148;28;20205;-82
2023/03/21 06:16:57;;;;;;;23.87;14.60;;;;;;;8.52;100.00;100762.34;4968280;28;20212;-82
2023/03/21 06:19:25;;;;;;;21.67;14.60;;;;;;;8.55;100.00;100766.66;4965132;28;20228;-83
2023/03/21 06:21:51;;;;;;;22.17;14.27;;;;;;;8.57;100.00;100772.75;4971910;28;20255;-82
2023/03/21 06:24:17;;;;;;;20.93;14.63;;;;;;;8.60;100.00;100768.09;4975228;28;20721;-82
2023/03/21 06:26:47;;;;;;;24.90;14.67;;;;;;;8.58;100.00;100770.00;4972838;28;20209;-82
2023/03/21 06:29:13;;;;;;;23.23;13.23;;;;;;;8.60;100.00;100773.41;4971331;28;20720;-81
2023/03/21 06:31:40;;;;;;;25.67;14.17;;;;;;;8.60;100.00;100767.25;4972531;28;20213;-82
2023/03/21 06:34:06;;;;;;;22.03;13.63;;;;;;;8.60;100.00;100768.09;4974080;28;20212;-82
2023/03/21 06:36:33;;;;;;;20.00;12.27;;;;;;;8.63;100.00;100767.09;4979306;28;20583;-82
2023/03/21 06:38:59;;;;;;;21.07;13.27;;;;;;;8.66;100.00;100772.22;4974547;28;20239;-82
2023/03/21 06:41:26;;;;;;;19.77;12.97;;;;;;;8.66;100.00;100770.44;4975404;28;20315;-82
2023/03/21 06:43:54;;;;;;;21.20;12.67;;;;;;;8.67;100.00;100773.94;4973365;28;20691;-82
2023/03/21 06:46:20;;;;;;;21.73;12.47;;;;;;;8.68;99.61;100773.00;4977196;28;20651;-82
2023/03/21 06:48:47;;;;;;;18.27;10.47;;;;;;;8.72;99.74;100777.22;4970339;28;20217;-82
2023/03/21 06:51:15;;;;;;;23.87;13.47;;;;;;;8.76;98.84;100781.44;4977053;28;20216;-82
2023/03/21 06:53:43;;;;;;;22.10;12.60;;;;;;;8.77;98.85;100777.84;4974122;28;20224;-82
2023/03/21 06:56:11;;;;;;;20.33;12.47;;;;;;;8.78;99.18;100770.75;4970845;28;20286;-82
2023/03/21 06:58:38;;;;;;;19.13;12.47;;;;;;;8.80;98.61;100780.31;4977913;28;20211;-82
2023/03/21 07:01:06;;;;;;;20.47;12.67;;;;;;;8.85;98.67;100774.75;4975404;28;20232;-82
2023/03/21 07:03:33;;;;;;;21.57;12.80;;;;;;;8.86;97.98;100773.81;4970946;28;20242;-82
2023/03/21 07:06:04;;;;;;;24.50;13.87;;;;;;;8.87;98.63;100787.03;4975373;28;20705;-81
2023/03/21 07:08:30;;;;;;;21.80;13.63;;;;;;;8.92;98.00;100784.13;4964217;28;20209;-82
2023/03/21 07:10:57;;;;;;;20.00;11.87;;;;;;;8.92;97.68;100768.19;4978847;28;20235;-82
2023/03/21 07:13:24;;;;;;;21.53;13.70;;;;;;;8.95;97.82;100776.84;4973504;28;20223;-82
2023/03/21 07:15:52;;;;;;;20.30;12.80;;;;;;;8.98;97.27;100778.44;4965800;28;20213;-82
2023/03/21 07:18:20;;;;;;;18.30;10.77;;;;;;;8.97;97.04;100780.25;4973969;28;20216;-82
2023/03/21 07:20:49;;;;;;;21.87;11.67;;;;;;;9.04;96.72;100778.13;4968083;28;20702;-82
2023/03/21 07:23:16;;;;;;;20.37;11.60;;;;;;;9.05;96.81;100774.53;4983524;28;20224;-82
2023/03/21 07:25:43;;;;;;;21.03;11.83;;;;;;;9.08;96.39;100781.47;4983706;28;20211;-82
2023/03/21 07:28:09;;;;;;;20.73;11.93;;;;;;;9.10;96.33;100782.25;4977873;28;20685;-82
2023/03/21 07:30:36;;;;;;;18.87;11.87;;;;;;;9.14;96.21;100773.16;4973841;28;20280;-82
2023/03/21 07:33:03;;;;;;;23.10;12.10;;;;;;;9.16;96.03;100777.44;4977292;28;20641;-82
2023/03/21 07:35:32;;;;;;;21.00;11.40;;;;;;;9.18;95.04;100772.03;4973512;28;20227;-82
2023/03/21 07:37:58;;;;;;;24.03;11.50;;;;;;;9.19;94.97;100774.63;4974189;28;20704;-82
2023/03/21 07:40:25;;;;;;;17.30;11.60;;;;;;;9.19;94.91;100766.66;4978597;28;20235;-82
2023/03/21 07:42:51;;;;;;;17.30;11.23;;;;;;;9.22;94.70;100768.28;4978596;28;20587;-81
2023/03/21 07:45:20;;;;;;;20.27;11.03;;;;;;;9.27;93.93;100764.44;4974609;28;20596;-81
2023/03/21 07:47:47;;;;;;;18.97;10.97;;;;;;;9.28;94.06;100760.84;4976645;28;20213;-81
2023/03/21 07:50:14;;;;;;;27.93;11.83;;;;;;;9.28;93.80;100758.19;4977451;28;20224;-81
2023/03/21 07:52:42;;;;;;;20.70;11.13;;;;;;;9.32;93.72;100751.72;4974733;28;20204;-81
2023/03/21 07:55:10;;;;;;;19.70;11.17;;;;;;;9.37;93.70;100746.16;4976246;28;20580;-81
2023/03/21 07:57:36;;;;;;;18.23;11.57;;;;;;;9.40;93.21;100743.31;4977473;28;20205;-81
2023/03/21 08:00:04;;;;;;;17.60;10.33;;;;;;;9.40;93.11;100752.16;4976731;28;20235;-82
2023/03/21 08:02:30;;;;;;;16.63;10.07;;;;;;;9.40;93.16;100754.81;4975160;28;20577;-82
2023/03/21 08:04:57;;;;;;;14.53;9.13;;;;;;;9.45;92.78;100757.22;4972861;28;20786;-82
2023/03/21 08:07:26;;;;;;;16.33;9.47;;;;;;;9.48;92.59;100762.38;4970097;28;20211;-82
2023/03/21 08:09:54;;;;;;;18.20;9.43;;;;;;;9.52;92.37;100758.56;4969147;28;20768;-82
2023/03/21 08:12:20;;;;;;;20.40;10.23;;;;;;;9.58;91.41;100758.22;4972031;28;20216;-81
2023/03/21 08:14:46;;;;;;;13.23;9.07;;;;;;;9.61;91.61;100760.72;4972846;28;20209;-82
2023/03/21 08:17:13;;;;;;;18.43;9.83;;;;;;;9.65;91.83;100756.09;4967735;28;20219;-81
2023/03/21 08:19:39;;;;;;;13.47;8.57;;;;;;;9.73;90.67;100761.78;4971679;28;20227;-82
2023/03/21 08:22:06;;;;;;;13.43;9.33;;;;;;;9.75;89.79;100760.75;4968376;28;20591;-82
2023/03/21 08:24:33;;;;;;;17.17;10.37;;;;;;;9.79;90.61;100756.13;4974818;28;20598;-82
2023/03/21 08:27:01;;;;;;;17.53;10.00;;;;;;;9.89;90.20;100759.09;4971529;28;20297;-82
2023/03/21 08:29:28;;;;;;;16.70;10.00;;;;;;;9.90;89.77;100766.13;4973861;28;20229;-82
2023/03/21 08:31:55;;;;;;;13.40;9.63;;;;;;;9.94;89.65;100765.88;4976791;28;20227;-82
2023/03/21 08:34:22;;;;;;;18.60;10.57;;;;;;;10.03;88.79;100770.63;4971474;28;20604;-82
2023/03/21 08:36:49;;;;;;;19.47;10.30;;;;;;;10.04;88.23;100761.69;4977668;28;20211;-82
2023/03/21 08:39:16;;;;;;;17.37;9.97;;;;;;;10.10;88.44;100763.16;4968087;28;20236;-82
2023/03/21 08:41:42;;;;;;;14.07;10.60;;;;;;;10.16;88.93;100760.13;4975883;28;20209;-83
2023/03/21 08:44:11;;;;;;;18.63;9.37;;;;;;;10.24;88.92;100759.69;4969248;28;20232;-84
2023/03/21 08:46:37;;;;;;;18.73;10.50;;;;;;;10.30;88.09;100762.00;4976660;28;20287;-83
2023/03/21 08:49:04;;;;;;;15.20;9.87;;;;;;;10.32;87.76;100762.75;4970688;28;20224;-84
2023/03/21 08:51:32;;;;;;;17.43;10.20;;;;;;;10.36;87.37;100764.31;4978142;28;20216;-83
2023/03/21 08:53:59;;;;;;;18.80;11.20;;;;;;;10.40;87.08;100761.34;4965326;28;20204;-83
2023/03/21 08:56:26;;;;;;;19.73;9.80;;;;;;;10.40;86.91;100752.50;4968483;28;20219;-84
2023/03/21 08:58:52;;;;;;;15.17;9.37;;;;;;;10.46;85.99;100757.44;4974329;28;20208;-84
2023/03/21 09:01:20;;;;;;;18.87;9.90;;;;;;;10.45;85.76;100761.06;4973225;28;20208;-83
2023/03/21 09:03:46;;;;;;;16.30;9.00;;;;;;;10.48;85.49;100758.22;4963937;28;20329;-83
2023/03/21 09:06:13;;;;;;;14.80;9.70;;;;;;;10.47;85.15;100753.84;4965164;28;20212;-83
2023/03/21 09:08:42;;;;;;;17.33;10.43;;;;;;;10.49;85.37;100764.41;4966545;28;20244;-83
2023/03/21 09:11:08;;;;;;;19.93;10.17;;;;;;;10.51;85.09;100758.03;4973838;28;20232;-83
2023/03/21 09:13:35;;;;;;;17.50;9.07;;;;;;;10.57;84.98;100756.81;4975069;28;20214;-83
2023/03/21 09:16:02;;;;;;;17.53;9.83;;;;;;;10.62;85.03;100754.69;4966058;28;20213;-83
2023/03/21 09:18:44;;;;;;;16.70;9.50;;;;;;;10.67;85.04;100753.47;4964285;28;20272;-83
2023/03/21 09:21:13;;;;;;;17.03;9.63;;;;;;;10.75;84.83;100744.97;4974262;28;20259;-83
2023/03/21 09:23:40;;;;;;;16.90;8.50;;;;;;;10.89;84.70;100755.66;4970779;28;20255;-83
2023/03/21 09:26:08;;;;;;;16.00;8.97;;;;;;;10.96;83.90;100743.63;4968974;28;20216;-83
2023/03/21 09:28:36;;;;;;;14.23;8.33;;;;;;;11.05;83.86;100743.06;4970038;28;20213;-84
2023/03/21 09:31:03;;;;;;;18.10;9.13;;;;;;;11.12;83.33;100749.69;4972032;28;20230;-84
2023/03/21 09:33:31;;;;;;;14.83;9.20;;;;;;;11.22;82.99;100746.47;4968435;28;20296;-84
2023/03/21 09:35:59;;;;;;;15.37;9.30;;;;;;;11.31;83.14;100751.19;4967850;28;20738;-84
2023/03/21 09:38:29;;;;;;;13.03;8.30;;;;;;;11.39;82.56;100752.41;4966034;28;20224;-83
2023/03/21 09:41:05;;;;;;;14.60;8.63;;;;;;;11.42;81.01;100754.88;4969258;28;20232;-83
2023/03/21 09:43:42;;;;;;;17.93;8.07;;;;;;;11.47;80.52;100747.41;4970382;28;20217;-84
2023/03/21 09:46:18;;;;;;;13.37;8.53;;;;;;;11.50;79.99;100751.69;4976328;28;20204;-84
2023/03/21 09:48:53;;;;;;;14.83;8.70;;;;;;;11.54;80.20;100747.03;4969994;28;20241;-85
2023/03/21 09:51:22;;;;;;;14.77;8.23;;;;;;;11.59;79.60;100736.91;4964535;28;20233;-84
2023/03/21 09:53:51;;;;;;;14.80;8.47;;;;;;;11.63;79.62;100739.28;4968519;28;20269;-84
2023/03/21 09:56:18;;;;;;;15.20;7.70;;;;;;;11.73;79.41;100742.19;4974823;28;20237;-84
2023/03/21 09:58:51;;;;;;;14.83;8.27;;;;;;;11.80;78.75;100733.72;4972775;28;20300;-84
2023/03/21 10:01:26;;;;;;;17.20;9.27;;;;;;;11.86;78.58;100742.25;4975834;28;20580;-84
2023/03/21 10:03:55;;;;;;;16.67;8.40;;;;;;;11.93;78.66;100736.41;4969905;28;20228;-84
2023/03/21 10:06:27;;;;;;;17.83;8.23;;;;;;;12.05;76.84;100742.72;4968192;28;20272;-84
2023/03/21 10:08:57;;;;;;;14.87;7.87;;;;;;;12.06;76.81;100731.94;4971457;28;20210;-83
2023/03/21 10:11:26;;;;;;;15.13;7.90;;;;;;;12.10;75.84;100745.94;4970395;28;20635;-83
2023/03/21 10:13:57;;;;;;;12.70;7.70;;;;;;;12.15;75.93;100735.81;4966584;28;20226;-83
2023/03/21 10:16:27;;;;;;;14.13;7.83;;;;;;;12.17;75.44;100739.22;4972855;28;20709;-83
2023/03/21 10:18:56;;;;;;;16.70;9.53;;;;;;;12.20;75.20;100735.47;4964552;28;20296;-83
2023/03/21 10:21:25;;;;;;;15.60;8.80;;;;;;;12.24;74.88;100737.84;4971345;28;20235;-84
2023/03/21 10:23:53;;;;;;;14.33;8.87;;;;;;;12.28;74.99;100735.81;4966084;28;20236;-83
2023/03/21 10:26:21;;;;;;;16.33;8.70;;;;;;;12.32;73.56;100740.84;4965581;28;20209;-84
2023/03/21 10:28:49;;;;;;;10.47;7.80;;;;;;;12.29;73.83;100740.19;4970793;28;20211;-83
2023/03/21 10:31:19;;;;;;;11.83;7.47;;;;;;;12.29;73.42;100733.03;4970502;28;20208;-83
2023/03/21 10:33:49;;;;;;;15.73;8.53;;;;;;;12.29;73.56;100734.84;4960814;28;20204;-84
2023/03/21 10:36:19;;;;;;;12.00;6.70;;;;;;;12.28;73.68;100731.31;4976703;28;20675;-84
2023/03/21 10:38:50;;;;;;;10.73;6.80;;;;;;;12.27;73.41;100736.78;4969413;28;20419;-83
2023/03/21 10:41:16;;;;;;;13.33;7.90;;;;;;;12.20;73.95;100739.00;4973487;28;20631;-84
2023/03/21 10:43:44;;;;;;;12.77;7.93;;;;;;;12.16;74.97;100745.53;4966136;28;20700;-83
2023/03/21 10:46:13;;;;;;;18.97;8.17;;;;;;;12.15;75.55;100743.81;4970842;28;20219;-84
2023/03/21 10:48:44;;;;;;;12.20;7.77;;;;;;;12.15;76.59;100733.13;4972626;28;20204;-84
2023/03/21 10:51:17;;;;;;;9.97;6.77;;;;;;;12.17;77.26;100736.56;4976241;28;20254;-84
2023/03/21 10:53:50;;;;;;;15.67;8.20;;;;;;;12.19;77.65;100734.59;4973302;28;20204;-84
2023/03/21 10:56:17;;;;;;;11.17;7.47;;;;;;;12.22;78.10;100734.41;4973775;28;20244;-84
2023/03/21 10:58:46;;;;;;;15.30;9.33;;;;;;;12.24;78.83;100724.47;4974336;28;20207;-84
2023/03/21 11:01:17;;;;;;;16.10;8.17;;;;;;;12.27;78.79;100729.63;4971541;28;20218;-84
2023/03/21 11:03:47;;;;;;;13.67;8.23;;;;;;;12.31;79.59;100730.25;4974576;28;20218;-84
2023/03/21 11:06:22;;;;;;;15.13;8.53;;;;;;;12.30;79.52;100726.75;4966667;28;20219;-84
2023/03/21 11:08:54;;;;;;;13.57;7.80;;;;;;;12.28;79.67;100728.66;4975769;28;20199;-83
2023/03/21 11:11:24;;;;;;;14.97;7.50;;;;;;;12.28;79.28;100723.31;4973310;28;20710;-83
2023/03/21 11:13:58;;;;;;;11.20;7.57;;;;;;;12.21;79.04;100718.50;4970779;28;20212;-83
2023/03/21 11:16:30;;;;;;;11.60;7.23;;;;;;;12.18;79.61;100719.59;4972562;28;20302;-84
2023/03/21 11:19:01;;;;;;;15.37;7.83;;;;;;;12.16;79.87;100717.00;4973366;28;20279;-83
2023/03/21 11:21:36;;;;;;;11.87;7.83;;;;;;;12.11;80.43;100715.63;4964413;28;20262;-84
2023/03/21 11:24:02;;;;;;;15.03;7.67;;;;;;;12.09;81.05;100718.38;4967439;28;20236;-84